RYR1051 EGPH-LFRS
Flight info
| Callsign | RYR1051 |
|---|---|
| Flight time | 1h 36m |
| Altitude | 25000 |
| Route | GOSAM P600 FENIK L612 NAVSO/N0438F370 DCT AKOMU DCT VAMEB UL612 HON UN859 CPT/N0357F230 Y321 PEPIS/N0442F380 Q41 SAM/N0440F370 M195 MARUK N621 LELNA DCT DOMOK/N0413F310 UT260 UPALO UN862 GODAN |
| Aircraft | B738/M-SDE3FGILRWY/SB1 |
Departure
| Time | 2026-05-07 09:43 |
|---|---|
| Airport | Edinburgh Airport (EGPH) |
Arrival
| Time | 2026-05-07 11:19 |
|---|---|
| Airport | Nantes Atlantique Airport (LFRS) |
| Time | Latitude | Longitude | Altitude | Speed | Heading |
|---|---|---|---|---|---|
| 2026-05-07 09:06 | 55.94612 | -3.36630 | 114 ft | 0 kts | 89° |
| 2026-05-07 09:33 | 55.94612 | -3.36633 | 115 ft | 2 kts | 89° |
| 2026-05-07 09:33 | 55.94610 | -3.36679 | 128 ft | 4 kts | 76° |
| 2026-05-07 09:34 | 55.94600 | -3.36720 | 111 ft | 4 kts | 40° |
| 2026-05-07 09:34 | 55.94586 | -3.36733 | 112 ft | 0 kts | 359° |
| 2026-05-07 09:37 | 55.94598 | -3.36733 | 113 ft | 4 kts | 359° |
| 2026-05-07 09:38 | 55.94641 | -3.36734 | 115 ft | 8 kts | 359° |
| 2026-05-07 09:38 | 55.94706 | -3.36736 | 115 ft | 11 kts | 359° |
| 2026-05-07 09:38 | 55.94776 | -3.36770 | 113 ft | 10 kts | 338° |
| 2026-05-07 09:38 | 55.94847 | -3.36778 | 115 ft | 10 kts | 360° |
| 2026-05-07 09:39 | 55.94909 | -3.36818 | 113 ft | 9 kts | 328° |
| 2026-05-07 09:39 | 55.94961 | -3.36795 | 114 ft | 9 kts | 54° |
| 2026-05-07 09:39 | 55.94993 | -3.36700 | 114 ft | 9 kts | 59° |
| 2026-05-07 09:39 | 55.95032 | -3.36584 | 114 ft | 13 kts | 59° |
| 2026-05-07 09:40 | 55.95086 | -3.36423 | 112 ft | 17 kts | 59° |
| 2026-05-07 09:40 | 55.95155 | -3.36218 | 114 ft | 21 kts | 59° |
| 2026-05-07 09:40 | 55.95232 | -3.35993 | 115 ft | 22 kts | 59° |
| 2026-05-07 09:40 | 55.95309 | -3.35765 | 113 ft | 21 kts | 59° |
| 2026-05-07 09:41 | 55.95383 | -3.35546 | 114 ft | 19 kts | 59° |
| 2026-05-07 09:41 | 55.95436 | -3.35408 | 114 ft | 10 kts | 31° |
| 2026-05-07 09:41 | 55.95498 | -3.35439 | 114 ft | 10 kts | 328° |
| 2026-05-07 09:41 | 55.95565 | -3.35515 | 111 ft | 8 kts | 321° |
| 2026-05-07 09:42 | 55.95570 | -3.35570 | 112 ft | 6 kts | 237° |
| 2026-05-07 09:42 | 55.95468 | -3.35870 | 109 ft | 64 kts | 239° |
| 2026-05-07 09:42 | 55.95113 | -3.36914 | 112 ft | 130 kts | 239° |
| 2026-05-07 09:42 | 55.94570 | -3.38535 | 379 ft | 162 kts | 237° |
| 2026-05-07 09:43 | 55.93980 | -3.40280 | 1313 ft | 163 kts | 233° |
| 2026-05-07 09:43 | 55.93386 | -3.42005 | 2270 ft | 162 kts | 234° |
| 2026-05-07 09:43 | 55.92823 | -3.43702 | 3244 ft | 161 kts | 235° |
| 2026-05-07 09:43 | 55.92193 | -3.45478 | 3830 ft | 180 kts | 235° |
| 2026-05-07 09:44 | 55.91489 | -3.47458 | 4110 ft | 206 kts | 235° |
| 2026-05-07 09:44 | 55.90696 | -3.49712 | 4569 ft | 220 kts | 238° |
| 2026-05-07 09:44 | 55.90169 | -3.52417 | 4961 ft | 247 kts | 258° |
| 2026-05-07 09:44 | 55.89938 | -3.55547 | 5695 ft | 255 kts | 258° |
| 2026-05-07 09:45 | 55.89663 | -3.58651 | 6007 ft | 257 kts | 257° |
| 2026-05-07 09:45 | 55.89359 | -3.61801 | 6010 ft | 257 kts | 257° |
| 2026-05-07 09:45 | 55.89050 | -3.64919 | 6057 ft | 256 kts | 257° |
| 2026-05-07 09:45 | 55.88730 | -3.68123 | 6584 ft | 261 kts | 257° |
| 2026-05-07 09:46 | 55.88415 | -3.71263 | 7657 ft | 256 kts | 257° |
| 2026-05-07 09:46 | 55.88097 | -3.74405 | 8565 ft | 259 kts | 257° |
| 2026-05-07 09:46 | 55.87779 | -3.77534 | 9417 ft | 263 kts | 257° |
| 2026-05-07 09:46 | 55.87455 | -3.80762 | 10248 ft | 267 kts | 257° |
| 2026-05-07 09:47 | 55.86998 | -3.84087 | 10511 ft | 289 kts | 243° |
| 2026-05-07 09:47 | 55.85633 | -3.86830 | 10795 ft | 309 kts | 212° |
| 2026-05-07 09:47 | 55.83631 | -3.88351 | 11479 ft | 317 kts | 200° |
| 2026-05-07 09:47 | 55.81516 | -3.89572 | 12241 ft | 322 kts | 199° |
| 2026-05-07 09:48 | 55.79361 | -3.90753 | 12989 ft | 326 kts | 198° |
| 2026-05-07 09:48 | 55.77179 | -3.91950 | 13734 ft | 330 kts | 198° |
| 2026-05-07 09:48 | 55.74975 | -3.93176 | 14413 ft | 334 kts | 199° |
| 2026-05-07 09:48 | 55.72735 | -3.94353 | 15092 ft | 337 kts | 198° |
| 2026-05-07 09:49 | 55.70466 | -3.95468 | 15774 ft | 340 kts | 197° |
| 2026-05-07 09:49 | 55.68168 | -3.96568 | 16376 ft | 345 kts | 197° |
| 2026-05-07 09:49 | 55.65833 | -3.97671 | 17052 ft | 348 kts | 197° |
| 2026-05-07 09:49 | 55.63480 | -3.98767 | 17719 ft | 351 kts | 197° |
| 2026-05-07 09:50 | 55.61097 | -3.99865 | 18331 ft | 356 kts | 197° |
| 2026-05-07 09:50 | 55.59504 | -4.00594 | 18689 ft | 359 kts | 197° |
| 2026-05-07 09:50 | 55.57075 | -4.01701 | 19246 ft | 362 kts | 197° |
| 2026-05-07 09:50 | 55.54600 | -4.02827 | 19846 ft | 364 kts | 197° |
| 2026-05-07 09:51 | 55.52140 | -4.03947 | 20418 ft | 367 kts | 197° |
| 2026-05-07 09:51 | 55.49652 | -4.05080 | 20945 ft | 371 kts | 197° |
| 2026-05-07 09:51 | 55.47147 | -4.06225 | 21463 ft | 374 kts | 197° |
| 2026-05-07 09:51 | 55.44653 | -4.07368 | 21993 ft | 376 kts | 197° |
| 2026-05-07 09:52 | 55.42114 | -4.08549 | 22525 ft | 379 kts | 197° |
| 2026-05-07 09:52 | 55.39554 | -4.09761 | 23006 ft | 383 kts | 197° |
| 2026-05-07 09:52 | 55.36971 | -4.10998 | 23504 ft | 385 kts | 197° |
| 2026-05-07 09:52 | 55.34376 | -4.12245 | 23959 ft | 387 kts | 197° |
| 2026-05-07 09:53 | 55.31706 | -4.12986 | 24321 ft | 395 kts | 180° |
| 2026-05-07 09:53 | 55.29005 | -4.11959 | 24806 ft | 402 kts | 160° |
| 2026-05-07 09:53 | 55.26521 | -4.09624 | 25163 ft | 410 kts | 151° |
| 2026-05-07 09:53 | 55.24087 | -4.06967 | 25514 ft | 414 kts | 151° |
| 2026-05-07 09:54 | 55.21628 | -4.04309 | 25898 ft | 416 kts | 151° |
| 2026-05-07 09:54 | 55.19152 | -4.01658 | 26305 ft | 418 kts | 151° |
| 2026-05-07 09:54 | 55.16663 | -3.99015 | 26716 ft | 419 kts | 151° |
| 2026-05-07 09:54 | 55.14158 | -3.96372 | 27077 ft | 422 kts | 152° |
| 2026-05-07 09:55 | 55.11634 | -3.93722 | 27409 ft | 425 kts | 152° |
| 2026-05-07 09:55 | 55.09086 | -3.91056 | 27750 ft | 428 kts | 152° |
| 2026-05-07 09:55 | 55.06527 | -3.88384 | 28129 ft | 429 kts | 152° |
| 2026-05-07 09:55 | 55.03957 | -3.85706 | 28464 ft | 432 kts | 152° |
| 2026-05-07 09:56 | 55.01368 | -3.83013 | 28781 ft | 435 kts | 152° |
| 2026-05-07 09:56 | 54.98761 | -3.80306 | 29031 ft | 439 kts | 151° |
| 2026-05-07 09:56 | 54.96129 | -3.77575 | 29279 ft | 442 kts | 151° |
| 2026-05-07 09:56 | 54.93479 | -3.74830 | 29613 ft | 443 kts | 151° |
| 2026-05-07 09:57 | 54.90826 | -3.72084 | 29965 ft | 445 kts | 151° |
| 2026-05-07 09:57 | 54.88164 | -3.69333 | 30234 ft | 447 kts | 151° |
| 2026-05-07 09:57 | 54.85486 | -3.66572 | 30504 ft | 448 kts | 151° |
| 2026-05-07 09:57 | 54.82811 | -3.63816 | 30892 ft | 446 kts | 151° |
| 2026-05-07 09:58 | 54.80147 | -3.61076 | 31346 ft | 443 kts | 151° |
| 2026-05-07 09:58 | 54.77508 | -3.58366 | 31776 ft | 440 kts | 151° |
| 2026-05-07 09:58 | 54.74878 | -3.55670 | 32133 ft | 440 kts | 151° |
| 2026-05-07 09:58 | 54.72245 | -3.52977 | 32457 ft | 439 kts | 151° |
| 2026-05-07 09:59 | 54.69616 | -3.50290 | 32825 ft | 437 kts | 151° |
| 2026-05-07 09:59 | 54.67000 | -3.47621 | 33015 ft | 439 kts | 151° |
| 2026-05-07 09:59 | 54.64365 | -3.44938 | 33017 ft | 438 kts | 152° |
| 2026-05-07 10:00 | 54.59143 | -3.39630 | 33004 ft | 433 kts | 151° |
| 2026-05-07 10:00 | 54.53947 | -3.34366 | 33011 ft | 433 kts | 151° |
| 2026-05-07 10:01 | 54.48746 | -3.29113 | 33010 ft | 434 kts | 151° |
| 2026-05-07 10:01 | 54.43536 | -3.23864 | 33020 ft | 434 kts | 151° |
| 2026-05-07 10:02 | 54.38317 | -3.18623 | 33007 ft | 435 kts | 151° |
| 2026-05-07 10:02 | 54.33089 | -3.13388 | 33020 ft | 435 kts | 150° |
| 2026-05-07 10:03 | 54.27852 | -3.08160 | 33016 ft | 433 kts | 150° |
| 2026-05-07 10:03 | 54.25288 | -3.05604 | 33003 ft | 420 kts | 151° |
| 2026-05-07 10:03 | 54.22789 | -3.03116 | 33009 ft | 413 kts | 151° |
| 2026-05-07 10:04 | 54.17846 | -2.98210 | 33022 ft | 410 kts | 150° |
| 2026-05-07 10:04 | 54.12921 | -2.93338 | 33018 ft | 409 kts | 150° |
| 2026-05-07 10:05 | 54.08001 | -2.88479 | 33036 ft | 408 kts | 150° |
| 2026-05-07 10:05 | 54.03079 | -2.83632 | 33025 ft | 409 kts | 150° |
| 2026-05-07 10:06 | 53.98096 | -2.79121 | 33025 ft | 410 kts | 158° |
| 2026-05-07 10:06 | 53.95446 | -2.77285 | 33165 ft | 413 kts | 158° |
| 2026-05-07 10:06 | 53.92766 | -2.75454 | 33285 ft | 418 kts | 157° |
| 2026-05-07 10:07 | 53.87332 | -2.71600 | 33446 ft | 430 kts | 156° |
| 2026-05-07 10:07 | 53.84544 | -2.69572 | 33772 ft | 429 kts | 156° |
| 2026-05-07 10:07 | 53.81852 | -2.67615 | 34155 ft | 427 kts | 156° |
| 2026-05-07 10:07 | 53.79120 | -2.65640 | 34372 ft | 428 kts | 156° |
| 2026-05-07 10:08 | 53.76379 | -2.63667 | 34658 ft | 426 kts | 156° |
| 2026-05-07 10:08 | 53.73669 | -2.61727 | 35094 ft | 421 kts | 157° |
| 2026-05-07 10:08 | 53.70945 | -2.59878 | 35260 ft | 424 kts | 158° |
| 2026-05-07 10:09 | 53.65367 | -2.56415 | 35590 ft | 427 kts | 160° |
| 2026-05-07 10:09 | 53.62573 | -2.54717 | 35779 ft | 429 kts | 160° |
| 2026-05-07 10:09 | 53.59761 | -2.53006 | 35976 ft | 429 kts | 160° |
| 2026-05-07 10:09 | 53.56955 | -2.51295 | 36207 ft | 429 kts | 160° |
| 2026-05-07 10:10 | 53.54160 | -2.49581 | 36575 ft | 426 kts | 160° |
| 2026-05-07 10:10 | 53.51375 | -2.47861 | 36711 ft | 428 kts | 160° |
| 2026-05-07 10:10 | 53.48588 | -2.46128 | 36937 ft | 426 kts | 160° |
| 2026-05-07 10:11 | 53.43082 | -2.42664 | 37065 ft | 422 kts | 160° |
| 2026-05-07 10:11 | 53.37542 | -2.39168 | 37085 ft | 429 kts | 160° |
| 2026-05-07 10:12 | 53.31913 | -2.35596 | 37087 ft | 436 kts | 159° |
| 2026-05-07 10:12 | 53.26265 | -2.31921 | 37069 ft | 433 kts | 159° |
| 2026-05-07 10:13 | 53.20707 | -2.28304 | 37063 ft | 426 kts | 159° |
| 2026-05-07 10:13 | 53.15231 | -2.24762 | 37068 ft | 422 kts | 159° |
| 2026-05-07 10:14 | 53.09719 | -2.21213 | 37078 ft | 428 kts | 159° |
| 2026-05-07 10:14 | 53.04215 | -2.17681 | 37070 ft | 435 kts | 159° |
| 2026-05-07 10:15 | 52.98547 | -2.14054 | 37062 ft | 435 kts | 158° |
| 2026-05-07 10:15 | 52.92980 | -2.10502 | 37071 ft | 427 kts | 158° |
| 2026-05-07 10:16 | 52.87465 | -2.06992 | 37053 ft | 422 kts | 158° |
| 2026-05-07 10:16 | 52.81944 | -2.03488 | 37080 ft | 428 kts | 159° |
| 2026-05-07 10:17 | 52.76326 | -1.99932 | 37085 ft | 436 kts | 158° |
| 2026-05-07 10:17 | 52.70626 | -1.96335 | 37075 ft | 439 kts | 158° |
| 2026-05-07 10:18 | 52.64951 | -1.92763 | 37061 ft | 432 kts | 158° |
| 2026-05-07 10:18 | 52.59375 | -1.89264 | 37064 ft | 426 kts | 159° |
| 2026-05-07 10:19 | 52.53820 | -1.85786 | 37085 ft | 429 kts | 159° |
| 2026-05-07 10:19 | 52.48185 | -1.82268 | 37082 ft | 438 kts | 159° |
| 2026-05-07 10:20 | 52.42457 | -1.78702 | 37082 ft | 441 kts | 159° |
| 2026-05-07 10:20 | 52.36762 | -1.75167 | 37068 ft | 433 kts | 159° |
| 2026-05-07 10:21 | 52.31154 | -1.71695 | 37072 ft | 430 kts | 159° |
| 2026-05-07 10:21 | 52.25555 | -1.68237 | 37075 ft | 430 kts | 159° |
| 2026-05-07 10:22 | 52.19959 | -1.64791 | 37085 ft | 430 kts | 159° |
| 2026-05-07 10:22 | 52.14360 | -1.61354 | 37098 ft | 431 kts | 159° |
| 2026-05-07 10:23 | 52.08738 | -1.57911 | 37098 ft | 432 kts | 159° |
| 2026-05-07 10:23 | 52.03107 | -1.54471 | 37081 ft | 433 kts | 159° |
| 2026-05-07 10:24 | 51.97457 | -1.51029 | 37078 ft | 434 kts | 159° |
| 2026-05-07 10:24 | 51.91793 | -1.47588 | 37081 ft | 435 kts | 159° |
| 2026-05-07 10:25 | 51.86114 | -1.44147 | 37079 ft | 436 kts | 159° |
| 2026-05-07 10:25 | 51.80421 | -1.40708 | 37080 ft | 437 kts | 159° |
| 2026-05-07 10:26 | 51.74721 | -1.37272 | 37069 ft | 438 kts | 160° |
| 2026-05-07 10:26 | 51.69014 | -1.33841 | 37077 ft | 438 kts | 160° |
| 2026-05-07 10:27 | 51.63440 | -1.30500 | 37076 ft | 438 kts | 160° |
| 2026-05-07 10:27 | 51.57724 | -1.27081 | 37076 ft | 439 kts | 160° |
| 2026-05-07 10:28 | 51.51999 | -1.23683 | 37074 ft | 438 kts | 162° |
| 2026-05-07 10:28 | 51.46019 | -1.22098 | 37066 ft | 436 kts | 182° |
| 2026-05-07 10:29 | 51.39966 | -1.22667 | 37068 ft | 436 kts | 184° |
| 2026-05-07 10:29 | 51.33956 | -1.23202 | 37063 ft | 436 kts | 183° |
| 2026-05-07 10:30 | 51.24874 | -1.23958 | 37072 ft | 436 kts | 184° |
| 2026-05-07 10:30 | 51.18830 | -1.24686 | 37063 ft | 435 kts | 192° |
| 2026-05-07 10:31 | 51.13087 | -1.27057 | 37070 ft | 434 kts | 196° |
| 2026-05-07 10:31 | 51.07371 | -1.29547 | 37075 ft | 434 kts | 195° |
| 2026-05-07 10:32 | 51.01533 | -1.31996 | 37076 ft | 434 kts | 195° |
| 2026-05-07 10:32 | 50.95746 | -1.34681 | 37065 ft | 433 kts | 204° |
| 2026-05-07 10:33 | 50.90647 | -1.39367 | 37084 ft | 432 kts | 214° |
| 2026-05-07 10:33 | 50.85657 | -1.44688 | 37073 ft | 432 kts | 214° |
| 2026-05-07 10:34 | 50.81501 | -1.49074 | 37073 ft | 432 kts | 214° |
| 2026-05-07 10:34 | 50.76483 | -1.54301 | 37074 ft | 432 kts | 213° |
| 2026-05-07 10:35 | 50.71459 | -1.59500 | 37073 ft | 432 kts | 213° |
| 2026-05-07 10:35 | 50.66437 | -1.64684 | 37072 ft | 432 kts | 213° |
| 2026-05-07 10:36 | 50.61411 | -1.69860 | 37063 ft | 431 kts | 213° |
| 2026-05-07 10:36 | 50.56391 | -1.75020 | 37067 ft | 431 kts | 213° |
| 2026-05-07 10:37 | 50.51371 | -1.80158 | 37069 ft | 430 kts | 213° |
| 2026-05-07 10:37 | 50.46343 | -1.85262 | 37060 ft | 430 kts | 213° |
| 2026-05-07 10:38 | 50.41317 | -1.90348 | 37059 ft | 430 kts | 213° |
| 2026-05-07 10:38 | 50.36293 | -1.95426 | 37060 ft | 429 kts | 213° |
| 2026-05-07 10:39 | 50.31275 | -2.00488 | 37059 ft | 429 kts | 213° |
| 2026-05-07 10:39 | 50.26178 | -2.05333 | 37046 ft | 429 kts | 205° |
| 2026-05-07 10:40 | 50.20452 | -2.07895 | 37050 ft | 431 kts | 187° |
| 2026-05-07 10:40 | 50.14471 | -2.08634 | 37050 ft | 431 kts | 185° |
| 2026-05-07 10:41 | 50.08489 | -2.09342 | 37058 ft | 431 kts | 186° |
| 2026-05-07 10:41 | 50.02509 | -2.10126 | 37061 ft | 431 kts | 186° |
| 2026-05-07 10:42 | 49.99515 | -2.10524 | 36825 ft | 433 kts | 186° |
| 2026-05-07 10:42 | 49.96530 | -2.10806 | 36555 ft | 426 kts | 182° |
| 2026-05-07 10:42 | 49.93593 | -2.10827 | 36280 ft | 419 kts | 181° |
| 2026-05-07 10:42 | 49.90713 | -2.10753 | 36029 ft | 412 kts | 181° |
| 2026-05-07 10:43 | 49.87912 | -2.10672 | 35777 ft | 405 kts | 181° |
| 2026-05-07 10:43 | 49.85097 | -2.10611 | 35523 ft | 398 kts | 181° |
| 2026-05-07 10:43 | 49.82353 | -2.10574 | 35281 ft | 392 kts | 181° |
| 2026-05-07 10:43 | 49.79649 | -2.10551 | 35020 ft | 386 kts | 182° |
| 2026-05-07 10:44 | 49.77025 | -2.10532 | 34781 ft | 383 kts | 182° |
| 2026-05-07 10:44 | 49.74327 | -2.10512 | 34546 ft | 383 kts | 181° |
| 2026-05-07 10:44 | 49.71689 | -2.10196 | 34311 ft | 390 kts | 172° |
| 2026-05-07 10:44 | 49.69001 | -2.09168 | 34096 ft | 395 kts | 166° |
| 2026-05-07 10:45 | 49.66392 | -2.08001 | 33822 ft | 395 kts | 166° |
| 2026-05-07 10:45 | 49.63851 | -2.06842 | 33556 ft | 396 kts | 166° |
| 2026-05-07 10:45 | 49.61213 | -2.05643 | 33282 ft | 396 kts | 166° |
| 2026-05-07 10:45 | 49.58567 | -2.04452 | 33007 ft | 396 kts | 166° |
| 2026-05-07 10:46 | 49.55925 | -2.03276 | 32739 ft | 396 kts | 166° |
| 2026-05-07 10:46 | 49.53378 | -2.02151 | 32482 ft | 395 kts | 166° |
| 2026-05-07 10:46 | 49.50732 | -2.00990 | 32208 ft | 395 kts | 166° |
| 2026-05-07 10:46 | 49.48087 | -1.99833 | 31948 ft | 395 kts | 166° |
| 2026-05-07 10:47 | 49.45446 | -1.98680 | 31687 ft | 395 kts | 166° |
| 2026-05-07 10:47 | 49.42806 | -1.97529 | 31433 ft | 394 kts | 166° |
| 2026-05-07 10:47 | 49.40167 | -1.96380 | 31178 ft | 394 kts | 166° |
| 2026-05-07 10:47 | 49.37531 | -1.95234 | 31082 ft | 394 kts | 166° |
| 2026-05-07 10:48 | 49.32222 | -1.92930 | 31057 ft | 397 kts | 166° |
| 2026-05-07 10:48 | 49.26911 | -1.90629 | 31038 ft | 396 kts | 166° |
| 2026-05-07 10:49 | 49.21621 | -1.88341 | 31042 ft | 395 kts | 166° |
| 2026-05-07 10:49 | 49.16342 | -1.86064 | 31046 ft | 394 kts | 166° |
| 2026-05-07 10:50 | 49.11070 | -1.83795 | 31052 ft | 394 kts | 166° |
| 2026-05-07 10:50 | 49.05794 | -1.81529 | 31043 ft | 394 kts | 166° |
| 2026-05-07 10:51 | 49.00509 | -1.79264 | 31053 ft | 395 kts | 166° |
| 2026-05-07 10:51 | 48.95238 | -1.77009 | 31034 ft | 387 kts | 166° |
| 2026-05-07 10:52 | 48.90113 | -1.75159 | 31026 ft | 368 kts | 177° |
| 2026-05-07 10:52 | 48.87608 | -1.75044 | 31024 ft | 354 kts | 181° |
| 2026-05-07 10:52 | 48.85169 | -1.75033 | 30813 ft | 348 kts | 181° |
| 2026-05-07 10:53 | 48.82766 | -1.75033 | 30158 ft | 355 kts | 181° |
| 2026-05-07 10:53 | 48.80250 | -1.75030 | 29296 ft | 365 kts | 181° |
| 2026-05-07 10:53 | 48.77708 | -1.75019 | 28804 ft | 365 kts | 181° |
| 2026-05-07 10:53 | 48.75177 | -1.74999 | 28383 ft | 362 kts | 181° |
| 2026-05-07 10:54 | 48.72667 | -1.74974 | 27996 ft | 359 kts | 181° |
| 2026-05-07 10:54 | 48.70147 | -1.74946 | 27615 ft | 356 kts | 181° |
| 2026-05-07 10:54 | 48.67680 | -1.74918 | 27250 ft | 353 kts | 181° |
| 2026-05-07 10:54 | 48.65235 | -1.74889 | 26892 ft | 350 kts | 181° |
| 2026-05-07 10:55 | 48.62843 | -1.74860 | 26534 ft | 347 kts | 181° |
| 2026-05-07 10:55 | 48.60439 | -1.74832 | 26186 ft | 344 kts | 181° |
| 2026-05-07 10:55 | 48.58055 | -1.74803 | 25839 ft | 341 kts | 181° |
| 2026-05-07 10:55 | 48.55686 | -1.74775 | 25498 ft | 339 kts | 181° |
| 2026-05-07 10:56 | 48.53335 | -1.74747 | 25151 ft | 337 kts | 181° |
| 2026-05-07 10:56 | 48.50999 | -1.74719 | 24809 ft | 335 kts | 181° |
| 2026-05-07 10:56 | 48.48676 | -1.74692 | 24476 ft | 333 kts | 181° |
| 2026-05-07 10:56 | 48.46359 | -1.74665 | 24130 ft | 332 kts | 181° |
| 2026-05-07 10:57 | 48.44053 | -1.74637 | 23788 ft | 331 kts | 181° |
| 2026-05-07 10:57 | 48.41756 | -1.74610 | 23415 ft | 330 kts | 181° |
| 2026-05-07 10:57 | 48.39468 | -1.74583 | 23025 ft | 328 kts | 181° |
| 2026-05-07 10:57 | 48.37194 | -1.74556 | 22666 ft | 326 kts | 181° |
| 2026-05-07 10:58 | 48.34934 | -1.74529 | 22319 ft | 324 kts | 181° |
| 2026-05-07 10:58 | 48.32686 | -1.74502 | 21988 ft | 322 kts | 181° |
| 2026-05-07 10:58 | 48.30454 | -1.74476 | 21662 ft | 320 kts | 181° |
| 2026-05-07 10:58 | 48.28235 | -1.74450 | 21328 ft | 318 kts | 181° |
| 2026-05-07 10:59 | 48.26028 | -1.74424 | 21009 ft | 316 kts | 181° |
| 2026-05-07 10:59 | 48.23832 | -1.74398 | 20699 ft | 315 kts | 181° |
| 2026-05-07 10:59 | 48.21641 | -1.74372 | 20351 ft | 314 kts | 181° |
| 2026-05-07 10:59 | 48.19460 | -1.74347 | 20030 ft | 313 kts | 181° |
| 2026-05-07 11:00 | 48.17285 | -1.74321 | 19698 ft | 312 kts | 181° |
| 2026-05-07 11:00 | 48.15122 | -1.74296 | 19391 ft | 311 kts | 181° |
| 2026-05-07 11:00 | 48.12960 | -1.74271 | 19093 ft | 312 kts | 181° |
| 2026-05-07 11:00 | 48.10786 | -1.74244 | 18757 ft | 315 kts | 181° |
| 2026-05-07 11:01 | 48.08591 | -1.74220 | 18435 ft | 317 kts | 181° |
| 2026-05-07 11:01 | 48.06397 | -1.74475 | 18040 ft | 317 kts | 193° |
| 2026-05-07 11:01 | 48.04297 | -1.75417 | 17699 ft | 314 kts | 200° |
| 2026-05-07 11:01 | 48.02234 | -1.76494 | 17355 ft | 314 kts | 200° |
| 2026-05-07 11:02 | 48.00175 | -1.77583 | 17018 ft | 314 kts | 200° |
| 2026-05-07 11:02 | 47.98123 | -1.78662 | 16699 ft | 311 kts | 200° |
| 2026-05-07 11:02 | 47.96088 | -1.79723 | 16353 ft | 309 kts | 200° |
| 2026-05-07 11:02 | 47.94065 | -1.80772 | 16034 ft | 307 kts | 200° |
| 2026-05-07 11:03 | 47.92074 | -1.81798 | 15736 ft | 307 kts | 200° |
| 2026-05-07 11:03 | 47.90052 | -1.82837 | 15377 ft | 308 kts | 200° |
| 2026-05-07 11:03 | 47.88028 | -1.83874 | 15043 ft | 306 kts | 200° |
| 2026-05-07 11:03 | 47.86025 | -1.84898 | 14710 ft | 301 kts | 200° |
| 2026-05-07 11:04 | 47.84071 | -1.85896 | 14386 ft | 294 kts | 200° |
| 2026-05-07 11:04 | 47.82161 | -1.86870 | 14082 ft | 287 kts | 200° |
| 2026-05-07 11:04 | 47.80288 | -1.87825 | 13798 ft | 284 kts | 200° |
| 2026-05-07 11:04 | 47.78409 | -1.88784 | 13449 ft | 287 kts | 200° |
| 2026-05-07 11:05 | 47.76517 | -1.89747 | 13114 ft | 288 kts | 200° |
| 2026-05-07 11:05 | 47.74621 | -1.90712 | 12781 ft | 288 kts | 200° |
| 2026-05-07 11:05 | 47.72734 | -1.91671 | 12479 ft | 286 kts | 199° |
| 2026-05-07 11:05 | 47.70875 | -1.92615 | 12169 ft | 284 kts | 199° |
| 2026-05-07 11:06 | 47.69007 | -1.93563 | 11862 ft | 283 kts | 199° |
| 2026-05-07 11:06 | 47.67147 | -1.94506 | 11554 ft | 282 kts | 199° |
| 2026-05-07 11:06 | 47.65279 | -1.95374 | 11255 ft | 281 kts | 191° |
| 2026-05-07 11:06 | 47.63336 | -1.95243 | 10950 ft | 282 kts | 167° |
| 2026-05-07 11:07 | 47.61511 | -1.94192 | 10651 ft | 282 kts | 156° |
| 2026-05-07 11:07 | 47.59788 | -1.92925 | 10344 ft | 282 kts | 155° |
| 2026-05-07 11:07 | 47.58046 | -1.91612 | 10127 ft | 278 kts | 154° |
| 2026-05-07 11:07 | 47.56341 | -1.90336 | 9924 ft | 274 kts | 155° |
| 2026-05-07 11:08 | 47.54638 | -1.89075 | 9602 ft | 273 kts | 155° |
| 2026-05-07 11:08 | 47.52960 | -1.87844 | 9320 ft | 272 kts | 154° |
| 2026-05-07 11:08 | 47.51253 | -1.86599 | 9073 ft | 276 kts | 154° |
| 2026-05-07 11:08 | 47.49502 | -1.85332 | 8736 ft | 284 kts | 155° |
| 2026-05-07 11:09 | 47.47710 | -1.84022 | 8418 ft | 288 kts | 155° |
| 2026-05-07 11:09 | 47.45907 | -1.82770 | 8088 ft | 286 kts | 157° |
| 2026-05-07 11:09 | 47.44155 | -1.81424 | 7778 ft | 284 kts | 140° |
| 2026-05-07 11:09 | 47.42953 | -1.79169 | 7531 ft | 280 kts | 118° |
| 2026-05-07 11:10 | 47.42294 | -1.76480 | 7226 ft | 278 kts | 107° |
| 2026-05-07 11:10 | 47.41854 | -1.73725 | 6937 ft | 275 kts | 103° |
| 2026-05-07 11:10 | 47.41488 | -1.70985 | 6673 ft | 269 kts | 104° |
| 2026-05-07 11:10 | 47.41083 | -1.68308 | 6388 ft | 264 kts | 105° |
| 2026-05-07 11:11 | 47.40677 | -1.65690 | 6117 ft | 259 kts | 105° |
| 2026-05-07 11:11 | 47.40279 | -1.63133 | 5818 ft | 254 kts | 105° |
| 2026-05-07 11:11 | 47.39890 | -1.60644 | 5656 ft | 242 kts | 105° |
| 2026-05-07 11:11 | 47.39521 | -1.58293 | 5536 ft | 230 kts | 105° |
| 2026-05-07 11:12 | 47.39165 | -1.56043 | 5452 ft | 222 kts | 106° |
| 2026-05-07 11:12 | 47.38817 | -1.53845 | 5373 ft | 219 kts | 106° |
| 2026-05-07 11:12 | 47.38468 | -1.51652 | 5313 ft | 221 kts | 105° |
| 2026-05-07 11:12 | 47.37961 | -1.49511 | 5097 ft | 221 kts | 127° |
| 2026-05-07 11:13 | 47.36958 | -1.47830 | 4875 ft | 217 kts | 133° |
| 2026-05-07 11:13 | 47.35951 | -1.46176 | 4628 ft | 215 kts | 133° |
| 2026-05-07 11:13 | 47.34960 | -1.44530 | 4389 ft | 214 kts | 132° |
| 2026-05-07 11:13 | 47.33937 | -1.42961 | 4128 ft | 210 kts | 145° |
| 2026-05-07 11:14 | 47.32605 | -1.42324 | 3941 ft | 199 kts | 179° |
| 2026-05-07 11:14 | 47.31286 | -1.42739 | 3720 ft | 192 kts | 202° |
| 2026-05-07 11:14 | 47.30211 | -1.43853 | 3525 ft | 189 kts | 217° |
| 2026-05-07 11:14 | 47.29212 | -1.45089 | 3310 ft | 187 kts | 217° |
| 2026-05-07 11:15 | 47.28223 | -1.46312 | 3105 ft | 185 kts | 217° |
| 2026-05-07 11:15 | 47.27231 | -1.47540 | 2931 ft | 188 kts | 218° |
| 2026-05-07 11:15 | 47.26227 | -1.48782 | 2692 ft | 188 kts | 216° |
| 2026-05-07 11:15 | 47.25226 | -1.50018 | 2412 ft | 188 kts | 216° |
| 2026-05-07 11:16 | 47.24245 | -1.51232 | 2170 ft | 181 kts | 217° |
| 2026-05-07 11:16 | 47.23294 | -1.52410 | 1911 ft | 174 kts | 216° |
| 2026-05-07 11:16 | 47.22414 | -1.53499 | 1693 ft | 159 kts | 217° |
| 2026-05-07 11:16 | 47.21617 | -1.54485 | 1465 ft | 147 kts | 216° |
| 2026-05-07 11:17 | 47.20840 | -1.55441 | 1292 ft | 146 kts | 215° |
| 2026-05-07 11:17 | 47.20066 | -1.56393 | 1107 ft | 145 kts | 217° |
| 2026-05-07 11:17 | 47.19282 | -1.57360 | 882 ft | 146 kts | 217° |
| 2026-05-07 11:17 | 47.18500 | -1.58304 | 728 ft | 147 kts | 218° |
| 2026-05-07 11:18 | 47.17695 | -1.59200 | 485 ft | 146 kts | 211° |
| 2026-05-07 11:18 | 47.16825 | -1.59925 | 250 ft | 141 kts | 205° |
| 2026-05-07 11:18 | 47.15982 | -1.60570 | 97 ft | 131 kts | 205° |
| 2026-05-07 11:18 | 47.15274 | -1.61106 | 97 ft | 93 kts | 207° |
| 2026-05-07 11:19 | 47.14831 | -1.61443 | 98 ft | 50 kts | 207° |
| 2026-05-07 11:19 | 47.14619 | -1.61605 | 96 ft | 29 kts | 207° |
| 2026-05-07 11:19 | 47.14446 | -1.61737 | 87 ft | 27 kts | 207° |
| 2026-05-07 11:19 | 47.14288 | -1.61857 | 81 ft | 23 kts | 207° |
| 2026-05-07 11:20 | 47.14189 | -1.61923 | 81 ft | 10 kts | 184° |
| 2026-05-07 11:20 | 47.14146 | -1.61860 | 81 ft | 9 kts | 103° |
| 2026-05-07 11:20 | 47.14152 | -1.61766 | 74 ft | 9 kts | 71° |
| 2026-05-07 11:20 | 47.14175 | -1.61689 | 83 ft | 8 kts | 55° |
| 2026-05-07 11:21 | 47.14219 | -1.61642 | 81 ft | 8 kts | 27° |
| 2026-05-07 11:21 | 47.14271 | -1.61602 | 83 ft | 8 kts | 27° |
| 2026-05-07 11:21 | 47.14298 | -1.61582 | 85 ft | 0 kts | 27° |
| 2026-05-07 11:22 | 47.14300 | -1.61581 | 86 ft | 1 kts | 27° |
| 2026-05-07 11:22 | 47.14334 | -1.61554 | 85 ft | 10 kts | 27° |
| 2026-05-07 11:23 | 47.14417 | -1.61491 | 88 ft | 16 kts | 27° |
| 2026-05-07 11:23 | 47.14527 | -1.61408 | 90 ft | 21 kts | 26° |
| 2026-05-07 11:23 | 47.14667 | -1.61301 | 95 ft | 24 kts | 27° |
| 2026-05-07 11:23 | 47.14823 | -1.61182 | 94 ft | 25 kts | 27° |
| 2026-05-07 11:24 | 47.14972 | -1.61069 | 95 ft | 23 kts | 27° |
| 2026-05-07 11:24 | 47.15110 | -1.60964 | 99 ft | 22 kts | 27° |
| 2026-05-07 11:24 | 47.15242 | -1.60864 | 97 ft | 21 kts | 27° |
| 2026-05-07 11:24 | 47.15369 | -1.60766 | 96 ft | 20 kts | 27° |
| 2026-05-07 11:25 | 47.15493 | -1.60672 | 98 ft | 20 kts | 27° |
| 2026-05-07 11:25 | 47.15586 | -1.60600 | 99 ft | 7 kts | 34° |
| 2026-05-07 11:25 | 47.15584 | -1.60534 | 98 ft | 7 kts | 127° |
| 2026-05-07 11:25 | 47.15547 | -1.60462 | 98 ft | 10 kts | 126° |
| 2026-05-07 11:26 | 47.15520 | -1.60362 | 99 ft | 11 kts | 84° |
| 2026-05-07 11:26 | 47.15565 | -1.60282 | 99 ft | 9 kts | 28° |
| 2026-05-07 11:26 | 47.15587 | -1.60216 | 100 ft | 8 kts | 98° |
| 2026-05-07 11:26 | 47.15567 | -1.60146 | 99 ft | 7 kts | 109° |
| 2026-05-07 11:27 | 47.15587 | -1.60079 | 100 ft | 8 kts | 44° |
| 2026-05-07 11:27 | 47.15611 | -1.60045 | 97 ft | 2 kts | 44° |
| 2026-05-07 11:27 | 47.15614 | -1.60040 | 99 ft | 0 kts | 44° |